createdAt,value
2022-11-22T00:00:42.151Z,31.83
2022-11-22T00:03:08.862Z,30.10
2022-11-22T00:05:35.477Z,33.30
2022-11-22T00:08:02.664Z,26.47
2022-11-22T00:10:29.300Z,29.27
2022-11-22T00:12:55.829Z,28.73
2022-11-22T00:15:22.997Z,30.47
2022-11-22T00:17:49.662Z,34.47
2022-11-22T00:20:16.295Z,26.80
2022-11-22T00:22:44.946Z,38.60
2022-11-22T00:25:13.260Z,38.43
2022-11-22T00:27:40.663Z,34.20
2022-11-22T00:30:07.882Z,44.70
2022-11-22T00:32:34.444Z,34.80
2022-11-22T00:35:01.050Z,41.43
2022-11-22T00:37:28.012Z,34.30
2022-11-22T00:39:55.440Z,38.77
2022-11-22T00:42:22.203Z,43.27
2022-11-22T00:44:49.574Z,37.60
2022-11-22T00:47:16.129Z,44.13
2022-11-22T00:49:44.505Z,35.90
2022-11-22T00:52:11.383Z,40.93
2022-11-22T00:54:37.987Z,45.37
2022-11-22T00:57:04.563Z,41.10
2022-11-22T00:59:31.385Z,38.80
2022-11-22T01:01:58.086Z,43.20
2022-11-22T01:04:25.106Z,47.93
2022-11-22T01:06:51.773Z,47.17
2022-11-22T01:09:21.167Z,46.63
2022-11-22T01:11:48.485Z,42.23
2022-11-22T01:14:16.094Z,47.00
2022-11-22T01:16:42.961Z,45.80
2022-11-22T01:19:09.887Z,44.57
2022-11-22T01:21:37.191Z,42.50
2022-11-22T01:24:03.893Z,42.50
2022-11-22T01:26:30.439Z,44.60
2022-11-22T01:28:57.657Z,41.40
2022-11-22T01:31:49.081Z,41.33
2022-11-22T01:37:03.493Z,37.10
2022-11-22T01:39:30.363Z,39.00
2022-11-22T01:41:57.527Z,40.47
2022-11-22T01:44:30.570Z,46.90
2022-11-22T01:47:11.690Z,36.93
2022-11-22T01:49:47.506Z,40.83
2022-11-22T01:52:17.727Z,44.27
2022-11-22T01:54:49.815Z,37.83
2022-11-22T01:57:23.953Z,37.57
2022-11-22T02:00:02.211Z,32.97
2022-11-22T02:02:33.365Z,26.30
2022-11-22T02:05:04.046Z,35.67
2022-11-22T02:07:53.629Z,39.30
2022-11-22T02:10:25.218Z,42.30
2022-11-22T02:12:54.323Z,36.37
2022-11-22T02:15:21.445Z,31.87
2022-11-22T02:17:47.999Z,38.67
2022-11-22T02:20:17.089Z,44.47
2022-11-22T02:23:03.578Z,29.43
2022-11-22T02:25:37.668Z,35.93
2022-11-22T02:28:04.890Z,39.03
2022-11-22T02:30:31.611Z,34.00
2022-11-22T02:32:58.334Z,35.57
2022-11-22T02:35:27.231Z,29.97
2022-11-22T02:37:59.937Z,31.23
2022-11-22T02:40:29.236Z,30.60
2022-11-22T02:43:01.892Z,35.70
2022-11-22T02:45:29.249Z,30.70
2022-11-22T02:48:10.810Z,37.57
2022-11-22T02:50:37.885Z,35.73
2022-11-22T02:53:05.834Z,33.53
2022-11-22T02:55:32.781Z,32.83
2022-11-22T02:57:59.468Z,31.70
2022-11-22T03:00:26.119Z,28.00
2022-11-22T03:02:52.823Z,34.40
2022-11-22T03:05:19.568Z,30.87
2022-11-22T03:07:47.562Z,29.43
2022-11-22T03:10:14.733Z,31.73
2022-11-22T03:12:41.317Z,27.63
2022-11-22T03:15:08.263Z,31.73
2022-11-22T03:17:34.844Z,28.60
2022-11-22T03:20:01.937Z,34.60
2022-11-22T03:22:28.983Z,29.23
2022-11-22T03:24:55.570Z,32.53
2022-11-22T03:27:22.172Z,27.60
2022-11-22T03:29:49.377Z,31.73
2022-11-22T03:32:15.995Z,31.87
2022-11-22T03:34:42.659Z,29.50
2022-11-22T03:37:09.174Z,28.20
2022-11-22T03:39:35.760Z,30.63
2022-11-22T03:42:02.281Z,31.07
2022-11-22T03:44:28.828Z,39.37
2022-11-22T03:46:55.504Z,38.77
2022-11-22T03:49:22.042Z,32.27
2022-11-22T03:51:48.798Z,35.40
2022-11-22T03:54:15.493Z,32.67
2022-11-22T03:56:43.875Z,33.00
2022-11-22T03:59:10.697Z,40.23
2022-11-22T04:01:37.330Z,32.53
2022-11-22T04:04:04.003Z,32.80
2022-11-22T04:06:30.599Z,34.73
2022-11-22T04:08:57.211Z,29.77
2022-11-22T04:11:23.756Z,31.60
2022-11-22T04:14:08.758Z,37.43
2022-11-22T04:16:35.296Z,30.63
2022-11-22T04:19:01.885Z,30.13
2022-11-22T04:21:34.806Z,34.57
2022-11-22T04:24:21.451Z,31.97
2022-11-22T04:26:49.006Z,28.33
2022-11-22T04:29:16.855Z,31.43
2022-11-22T04:32:01.995Z,31.87
2022-11-22T04:34:28.973Z,28.83
2022-11-22T04:36:55.484Z,31.20
2022-11-22T04:39:22.665Z,36.23
2022-11-22T04:42:12.328Z,32.60
2022-11-22T04:44:42.146Z,31.17
2022-11-22T04:47:34.399Z,30.17
2022-11-22T04:50:25.846Z,26.30
2022-11-22T04:53:01.486Z,25.63
2022-11-22T04:55:28.123Z,30.53
2022-11-22T04:57:59.659Z,26.27
2022-11-22T05:00:28.128Z,29.47
2022-11-22T05:02:54.965Z,22.23
2022-11-22T05:05:21.872Z,28.93
2022-11-22T05:07:48.621Z,28.13
2022-11-22T05:10:15.474Z,30.90
2022-11-22T05:12:42.786Z,25.63
2022-11-22T05:15:12.293Z,33.87
2022-11-22T05:17:39.296Z,30.30
2022-11-22T05:20:07.899Z,27.73
2022-11-22T05:22:53.692Z,28.10
2022-11-22T05:25:25.275Z,24.80
2022-11-22T05:27:55.585Z,22.60
2022-11-22T05:30:22.291Z,28.30
2022-11-22T05:32:48.863Z,26.63
2022-11-22T05:35:15.406Z,26.77
2022-11-22T05:37:41.930Z,30.00
2022-11-22T05:40:09.912Z,24.83
2022-11-22T05:42:36.489Z,25.60
2022-11-22T05:45:03.327Z,29.93
2022-11-22T05:47:35.459Z,22.33
2022-11-22T05:50:03.308Z,28.23
2022-11-22T05:52:30.549Z,27.57
2022-11-22T05:54:57.186Z,30.63
2022-11-22T05:57:24.098Z,29.00
2022-11-22T05:59:50.731Z,28.00
2022-11-22T06:02:17.309Z,28.87
2022-11-22T06:04:44.041Z,21.77
2022-11-22T06:07:10.846Z,29.53
2022-11-22T06:09:37.891Z,31.10
2022-11-22T06:12:04.781Z,24.00
2022-11-22T06:14:31.306Z,26.20
2022-11-22T06:16:58.257Z,27.67
2022-11-22T06:19:24.861Z,37.90
2022-11-22T06:21:51.823Z,28.17
2022-11-22T06:24:18.429Z,28.37
2022-11-22T06:26:44.969Z,34.53
2022-11-22T06:29:11.797Z,26.47
2022-11-22T06:31:38.317Z,26.93
2022-11-22T06:34:05.245Z,36.10
2022-11-22T06:36:34.451Z,31.60
2022-11-22T06:39:02.886Z,26.90
2022-11-22T06:41:35.200Z,25.70
2022-11-22T06:44:07.489Z,31.20
2022-11-22T06:46:34.594Z,27.80
2022-11-22T06:49:01.276Z,25.13
2022-11-22T06:51:29.742Z,29.10
2022-11-22T06:53:57.974Z,28.37
2022-11-22T06:56:26.455Z,27.83
2022-11-22T06:58:54.119Z,31.43
2022-11-22T07:01:22.237Z,29.03
2022-11-22T07:03:49.844Z,30.33
2022-11-22T07:06:18.619Z,25.43
2022-11-22T07:08:46.451Z,27.50
2022-11-22T07:11:22.859Z,36.90
2022-11-22T07:13:50.611Z,30.90
2022-11-22T07:16:19.877Z,34.43
2022-11-22T07:18:47.222Z,30.73
2022-11-22T07:21:24.453Z,28.50
2022-11-22T07:23:53.629Z,36.60
2022-11-22T07:26:22.190Z,32.53
2022-11-22T07:28:49.710Z,25.80
2022-11-22T07:31:17.156Z,32.87
2022-11-22T07:33:44.604Z,29.93
2022-11-22T07:36:14.082Z,30.70
2022-11-22T07:38:40.826Z,33.70
2022-11-22T07:41:09.040Z,31.63
2022-11-22T07:43:36.729Z,31.03
2022-11-22T07:46:10.471Z,29.83
2022-11-22T07:48:37.594Z,33.70
2022-11-22T07:51:06.391Z,28.20
2022-11-22T07:53:34.867Z,27.90
2022-11-22T07:56:05.566Z,32.63
2022-11-22T07:58:33.387Z,29.67
2022-11-22T08:01:14.773Z,27.10
2022-11-22T08:03:42.807Z,34.87
2022-11-22T08:06:11.370Z,32.13
2022-11-22T08:08:38.548Z,27.80
2022-11-22T08:11:06.269Z,33.33
2022-11-22T08:13:34.292Z,27.53
2022-11-22T08:16:05.475Z,32.73
2022-11-22T08:18:33.322Z,33.03
2022-11-22T08:21:08.949Z,29.00
2022-11-22T08:23:36.880Z,30.70
2022-11-22T08:26:03.916Z,31.43
2022-11-22T08:28:31.105Z,33.00
2022-11-22T08:31:30.194Z,30.40
2022-11-22T08:33:57.015Z,31.93
2022-11-22T08:36:24.630Z,28.57
2022-11-22T08:38:51.241Z,26.80
2022-11-22T08:41:18.704Z,30.03
2022-11-22T08:43:45.343Z,26.40
2022-11-22T08:46:12.294Z,29.43
2022-11-22T08:48:39.070Z,28.73
2022-11-22T08:51:08.107Z,31.43
2022-11-22T08:53:37.143Z,29.60
2022-11-22T08:56:05.822Z,25.90
2022-11-22T08:58:33.564Z,25.50
2022-11-22T09:01:11.501Z,24.30
2022-11-22T09:03:38.871Z,24.40
2022-11-22T09:09:35.946Z,24.57
2022-11-22T09:11:55.693Z,30.93
2022-11-22T09:14:22.364Z,26.27
2022-11-22T09:16:49.054Z,26.47
2022-11-22T09:19:16.416Z,33.03
2022-11-22T09:21:43.080Z,24.97
2022-11-22T09:24:09.792Z,27.07
2022-11-22T09:26:36.363Z,25.00
2022-11-22T09:29:03.167Z,26.27
2022-11-22T09:31:31.627Z,22.40
2022-11-22T09:33:58.709Z,22.67
2022-11-22T09:36:26.558Z,27.50
2022-11-22T09:38:54.277Z,32.30
2022-11-22T09:41:39.471Z,33.57
2022-11-22T09:44:24.019Z,29.27
2022-11-22T09:47:27.611Z,25.30
2022-11-22T09:50:25.037Z,26.80
2022-11-22T09:52:58.261Z,25.50
2022-11-22T09:55:27.830Z,23.30
2022-11-22T09:58:06.240Z,23.37
2022-11-22T10:00:33.186Z,27.73
2022-11-22T10:03:26.924Z,28.83
2022-11-22T10:06:01.065Z,26.70
2022-11-22T10:08:44.943Z,25.40
2022-11-22T10:11:38.086Z,26.87
2022-11-22T10:14:16.436Z,28.70
2022-11-22T10:16:51.248Z,22.30
2022-11-22T10:19:24.880Z,25.50
2022-11-22T10:21:51.531Z,25.03
2022-11-22T10:24:19.684Z,25.97
2022-11-22T10:26:47.123Z,31.83
2022-11-22T10:29:31.261Z,23.10
2022-11-22T10:32:17.006Z,23.97
2022-11-22T10:34:56.714Z,27.23
2022-11-22T10:37:41.382Z,31.40
2022-11-22T10:40:35.251Z,25.80
2022-11-22T10:43:18.667Z,25.83
2022-11-22T10:45:52.978Z,22.93
2022-11-22T10:48:48.216Z,25.73
2022-11-22T10:51:40.476Z,20.10
2022-11-22T10:54:34.686Z,21.57
2022-11-22T10:57:23.507Z,27.63
2022-11-22T11:00:06.087Z,27.50
2022-11-22T11:03:01.653Z,26.30
2022-11-22T11:06:15.364Z,25.77
2022-11-22T11:09:23.331Z,22.53
2022-11-22T11:11:30.370Z,24.90
2022-11-22T11:14:04.831Z,23.50
2022-11-22T11:16:35.658Z,19.40
2022-11-22T11:19:20.767Z,22.20
2022-11-22T11:21:58.451Z,17.90
2022-11-22T11:24:30.012Z,15.73
2022-11-22T11:27:00.493Z,19.60
2022-11-22T11:29:37.204Z,20.70
2022-11-22T11:32:08.022Z,20.03
2022-11-22T11:34:36.223Z,19.70
2022-11-22T11:37:08.364Z,20.23
2022-11-22T11:39:44.508Z,18.87
2022-11-22T11:42:35.534Z,18.13
2022-11-22T11:45:40.862Z,19.17
2022-11-22T11:48:38.326Z,14.60
2022-11-22T11:51:16.148Z,16.83
2022-11-22T11:53:51.889Z,17.00
2022-11-22T11:56:28.295Z,16.60
2022-11-22T11:58:58.462Z,15.70
2022-11-22T12:01:26.357Z,17.10
2022-11-22T12:04:02.525Z,19.03
2022-11-22T12:06:43.673Z,17.10
2022-11-22T12:09:36.964Z,18.67
2022-11-22T12:13:05.117Z,16.43
2022-11-22T12:15:42.410Z,20.83
2022-11-22T12:19:35.477Z,19.13
2022-11-22T12:24:19.857Z,21.77
2022-11-22T12:26:52.294Z,13.00
2022-11-22T12:29:44.012Z,16.20
2022-11-22T12:32:46.267Z,18.77
2022-11-22T12:35:35.411Z,14.77
2022-11-22T12:56:36.707Z,16.60
2022-11-22T12:59:26.678Z,11.77
2022-11-22T13:02:14.835Z,14.77
2022-11-22T13:04:50.647Z,12.67
2022-11-22T13:07:24.363Z,14.90
2022-11-22T13:09:58.344Z,16.33
2022-11-22T13:12:45.422Z,14.77
2022-11-22T13:15:17.193Z,13.43
2022-11-22T13:17:43.787Z,17.60
2022-11-22T13:20:44.439Z,14.80
2022-11-22T13:23:49.954Z,15.03
2022-11-22T13:26:29.279Z,13.27
2022-11-22T13:28:56.906Z,14.70
2022-11-22T13:31:23.754Z,18.13
2022-11-22T13:33:58.753Z,13.20
2022-11-22T13:36:31.089Z,15.37
2022-11-22T13:39:00.161Z,14.23
2022-11-22T13:41:30.106Z,15.90
2022-11-22T13:44:15.377Z,14.30
2022-11-22T13:46:55.130Z,17.70
2022-11-22T13:49:46.585Z,12.23
2022-11-22T13:52:15.028Z,15.13
2022-11-22T13:54:47.689Z,15.90
2022-11-22T13:57:32.323Z,16.17
2022-11-22T14:00:14.327Z,20.43
2022-11-22T14:02:45.060Z,13.23
2022-11-22T14:05:21.002Z,14.07
2022-11-22T14:07:52.801Z,20.00
2022-11-22T14:10:32.194Z,14.90
2022-11-22T14:13:22.363Z,16.37
2022-11-22T14:16:20.327Z,23.73
2022-11-22T14:19:20.232Z,17.63
2022-11-22T14:22:07.723Z,16.40
2022-11-22T14:25:08.151Z,12.77
2022-11-22T14:27:43.923Z,17.40
2022-11-22T14:30:18.861Z,20.30
2022-11-22T14:32:50.422Z,16.30
2022-11-22T14:35:27.784Z,22.10
2022-11-22T14:38:28.449Z,16.30
2022-11-22T14:41:27.249Z,17.13
2022-11-22T14:44:10.432Z,16.10
2022-11-22T14:46:53.286Z,14.83
2022-11-22T14:49:39.815Z,16.50
2022-11-22T14:52:20.858Z,16.80
2022-11-22T14:54:52.015Z,14.47
2022-11-22T14:57:25.174Z,19.80
2022-11-22T15:00:08.669Z,19.33
2022-11-22T15:02:58.243Z,19.33
2022-11-22T15:09:16.588Z,15.10
2022-11-22T15:09:16.807Z,18.97
2022-11-22T15:11:57.870Z,18.93
2022-11-22T15:57:38.559Z,21.23
2022-11-22T16:00:29.433Z,24.60
2022-11-22T16:03:06.744Z,26.27
2022-11-22T16:06:10.131Z,22.57
2022-11-22T16:08:22.111Z,31.20
2022-11-22T16:10:51.073Z,27.57
2022-11-22T16:13:18.520Z,29.30
2022-11-22T16:15:45.824Z,27.03
2022-11-22T16:18:24.618Z,29.70
2022-11-22T16:21:27.270Z,29.43
2022-11-22T16:24:19.439Z,28.47
2022-11-22T16:27:12.402Z,24.90
2022-11-22T16:29:39.157Z,30.33
2022-11-22T16:32:15.515Z,25.63
2022-11-22T16:34:43.362Z,28.83
2022-11-22T16:37:36.142Z,30.43
2022-11-22T16:40:03.088Z,28.17
2022-11-22T16:42:30.531Z,28.20
2022-11-22T16:45:02.400Z,22.83
2022-11-22T16:47:30.434Z,22.90
2022-11-22T16:49:57.472Z,26.77
2022-11-22T16:52:25.202Z,28.20
2022-11-22T16:54:51.702Z,45.30
2022-11-22T16:57:18.383Z,37.23
2022-11-22T16:59:44.976Z,29.63
2022-11-22T17:02:13.987Z,30.93
2022-11-22T17:04:41.370Z,26.00
2022-11-22T17:07:12.052Z,27.83
2022-11-22T17:09:39.318Z,22.97
2022-11-22T17:12:32.106Z,30.17
2022-11-22T17:15:00.262Z,32.70
2022-11-22T17:17:26.861Z,24.30
2022-11-22T17:19:54.347Z,26.70
2022-11-22T17:22:21.347Z,26.80
2022-11-22T17:24:47.936Z,27.30
2022-11-22T17:27:14.825Z,27.87
2022-11-22T17:29:50.416Z,29.50
2022-11-22T17:32:19.287Z,29.13
2022-11-22T17:34:45.875Z,25.70
2022-11-22T17:37:12.784Z,26.30
2022-11-22T17:39:39.695Z,31.77
2022-11-22T17:42:06.707Z,29.87
2022-11-22T17:44:34.009Z,23.60
2022-11-22T17:47:00.858Z,28.03
2022-11-22T17:49:27.505Z,25.80
2022-11-22T17:51:54.251Z,23.67
2022-11-22T17:54:21.037Z,21.60
2022-11-22T17:56:47.599Z,29.67
2022-11-22T17:59:14.214Z,24.90
2022-11-22T18:01:40.794Z,23.00
2022-11-22T18:04:07.335Z,23.80
2022-11-22T18:06:33.915Z,24.57
2022-11-22T18:09:00.907Z,23.00
2022-11-22T18:11:27.529Z,24.43
2022-11-22T18:13:54.391Z,25.07
2022-11-22T18:16:22.174Z,28.50
2022-11-22T18:18:56.798Z,28.57
2022-11-22T18:21:24.733Z,30.10
2022-11-22T18:23:51.428Z,24.63
2022-11-22T18:31:53.193Z,24.03
2022-11-22T18:34:21.314Z,27.90
2022-11-22T18:37:04.384Z,21.90
2022-11-22T18:39:34.782Z,20.07
2022-11-22T18:42:02.466Z,19.83
2022-11-22T18:44:29.152Z,26.10
2022-11-22T18:46:55.924Z,21.23
2022-11-22T18:49:22.649Z,25.03
2022-11-22T18:51:49.264Z,24.23
2022-11-22T18:54:16.082Z,19.73
2022-11-22T18:56:43.720Z,19.50
2022-11-22T18:59:12.681Z,22.37
2022-11-22T19:01:40.675Z,20.20
2022-11-22T19:04:07.854Z,24.10
2022-11-22T19:06:34.712Z,18.70
2022-11-22T19:09:01.720Z,21.93
2022-11-22T19:11:34.422Z,22.17
2022-11-22T19:14:01.154Z,20.83
2022-11-22T19:16:29.963Z,19.40
2022-11-22T19:18:57.393Z,20.50
2022-11-22T19:21:26.835Z,19.87
2022-11-22T19:23:54.798Z,20.83
2022-11-22T19:26:23.846Z,22.23
2022-11-22T19:28:55.299Z,25.80
2022-11-22T19:31:27.886Z,24.50
2022-11-22T19:33:55.318Z,19.57
2022-11-22T19:36:31.825Z,19.03
2022-11-22T19:39:00.927Z,25.53
2022-11-22T19:41:27.915Z,26.60
2022-11-22T19:43:55.842Z,30.77
2022-11-22T19:46:23.105Z,21.17
2022-11-22T19:48:51.777Z,20.77
2022-11-22T19:51:18.703Z,24.60
2022-11-22T19:53:45.375Z,19.67
2022-11-22T19:56:19.279Z,20.20
2022-11-22T19:58:54.136Z,17.03
2022-11-22T20:01:22.349Z,22.40
2022-11-22T20:03:56.993Z,17.93
2022-11-22T20:06:26.421Z,19.00
2022-11-22T20:08:53.330Z,19.10
2022-11-22T20:11:20.981Z,18.53
2022-11-22T20:13:50.114Z,18.63
2022-11-22T20:16:28.212Z,21.07
2022-11-22T20:19:00.289Z,17.53
2022-11-22T20:21:29.070Z,20.80
2022-11-22T20:23:56.613Z,17.80
2022-11-22T20:26:24.610Z,20.67
2022-11-22T20:28:59.272Z,14.13
2022-11-22T20:31:28.989Z,14.90
2022-11-22T20:33:57.747Z,20.53
2022-11-22T20:36:28.088Z,12.80
2022-11-22T20:38:56.059Z,13.30
2022-11-22T20:41:27.324Z,21.83
2022-11-22T20:43:55.296Z,16.77
2022-11-22T20:46:24.882Z,19.60
2022-11-22T20:48:53.106Z,18.30
2022-11-22T20:51:26.871Z,17.20
2022-11-22T20:53:54.097Z,27.13
2022-11-22T20:56:21.475Z,18.40
2022-11-22T20:58:48.466Z,13.43
2022-11-22T21:01:18.190Z,13.30
2022-11-22T21:03:45.419Z,23.43
2022-11-22T21:06:13.394Z,14.83
2022-11-22T21:08:40.520Z,12.43
2022-11-22T21:11:11.142Z,14.90
2022-11-22T21:13:37.792Z,17.77
2022-11-22T21:16:21.391Z,17.83
2022-11-22T21:19:02.525Z,15.37
2022-11-22T21:21:30.647Z,15.27
2022-11-22T21:24:00.408Z,20.27
2022-11-22T21:26:27.885Z,11.80
2022-11-22T21:28:54.788Z,19.27
2022-11-22T21:31:22.250Z,13.10
2022-11-22T21:33:49.592Z,15.87
2022-11-22T21:36:16.585Z,12.67
2022-11-22T21:38:43.206Z,14.83
2022-11-22T21:44:00.626Z,16.33
2022-11-22T21:46:27.139Z,9.17
2022-11-22T21:48:55.749Z,15.53
2022-11-22T21:51:23.145Z,12.87
2022-11-22T21:53:49.838Z,11.73
2022-11-22T21:56:16.468Z,15.90
2022-11-22T21:58:43.321Z,10.40
2022-11-22T22:01:14.081Z,14.73
2022-11-22T22:03:41.759Z,8.57
2022-11-22T22:06:09.086Z,8.53
2022-11-22T22:08:36.250Z,11.70
2022-11-22T22:16:13.172Z,10.53
2022-11-22T22:18:39.917Z,7.93
2022-11-22T22:21:08.608Z,11.97
2022-11-22T22:23:36.421Z,10.70
2022-11-22T22:26:05.456Z,14.93
2022-11-22T22:28:34.018Z,11.53
2022-11-22T22:31:04.626Z,19.13
2022-11-22T22:33:31.703Z,12.63
2022-11-22T22:35:59.329Z,11.10
2022-11-22T22:38:26.137Z,11.63
2022-11-22T22:40:56.899Z,13.77
2022-11-22T22:43:23.948Z,14.90
2022-11-22T22:45:51.166Z,15.43
2022-11-22T22:48:18.765Z,8.63
2022-11-22T22:50:45.616Z,13.27
2022-11-22T22:53:12.894Z,8.60
2022-11-22T22:55:39.468Z,10.63
2022-11-22T22:58:07.688Z,9.17
2022-11-22T23:00:37.050Z,11.60
2022-11-22T23:03:04.020Z,9.67
2022-11-22T23:05:30.592Z,15.53
2022-11-22T23:07:57.244Z,13.30
2022-11-22T23:10:24.527Z,13.60
2022-11-22T23:12:51.093Z,7.97
2022-11-22T23:15:21.856Z,11.00
2022-11-22T23:17:59.895Z,11.70
2022-11-22T23:20:26.454Z,18.20
2022-11-22T23:22:54.450Z,13.80
2022-11-22T23:25:21.520Z,13.60
2022-11-22T23:27:48.053Z,12.60
2022-11-22T23:30:15.351Z,10.20
2022-11-22T23:32:41.888Z,8.00
2022-11-22T23:35:08.979Z,11.13
2022-11-22T23:37:35.522Z,6.40
2022-11-22T23:40:02.350Z,9.70
2022-11-22T23:42:29.218Z,9.77
2022-11-22T23:44:57.315Z,11.57
2022-11-22T23:47:23.851Z,9.57
2022-11-22T23:49:50.424Z,10.90
2022-11-22T23:52:17.341Z,8.63
2022-11-22T23:54:44.530Z,8.90
2022-11-22T23:57:11.138Z,6.50
2022-11-22T23:59:37.701Z,15.40
